sensor_id;sensor_type;location;lat;lon;timestamp;P1;durP1;ratioP1;P2;durP2;ratioP2
63438;SDS011;49567;48.958;8.294;2023-05-07T00:00:12;5.63;;;2.20;;
63438;SDS011;49567;48.958;8.294;2023-05-07T00:02:40;3.08;;;2.28;;
63438;SDS011;49567;48.958;8.294;2023-05-07T00:05:06;2.72;;;2.53;;
63438;SDS011;49567;48.958;8.294;2023-05-07T00:07:32;2.45;;;2.30;;
63438;SDS011;49567;48.958;8.294;2023-05-07T00:09:57;2.67;;;2.00;;
63438;SDS011;49567;48.958;8.294;2023-05-07T00:12:22;4.90;;;2.40;;
63438;SDS011;49567;48.958;8.294;2023-05-07T00:14:47;5.27;;;2.47;;
63438;SDS011;49567;48.958;8.294;2023-05-07T00:17:13;8.70;;;2.50;;
63438;SDS011;49567;48.958;8.294;2023-05-07T00:19:38;3.27;;;2.07;;
63438;SDS011;49567;48.958;8.294;2023-05-07T00:22:03;3.07;;;2.00;;
63438;SDS011;49567;48.958;8.294;2023-05-07T00:24:28;4.37;;;2.47;;
63438;SDS011;49567;48.958;8.294;2023-05-07T00:26:54;2.00;;;1.90;;
63438;SDS011;49567;48.958;8.294;2023-05-07T00:29:19;2.87;;;2.10;;
63438;SDS011;49567;48.958;8.294;2023-05-07T00:31:45;4.47;;;2.00;;
63438;SDS011;49567;48.958;8.294;2023-05-07T00:34:10;3.93;;;2.00;;
63438;SDS011;49567;48.958;8.294;2023-05-07T00:36:35;2.30;;;2.13;;
63438;SDS011;49567;48.958;8.294;2023-05-07T00:39:00;3.60;;;2.37;;
63438;SDS011;49567;48.958;8.294;2023-05-07T00:41:28;1.85;;;1.75;;
63438;SDS011;49567;48.958;8.294;2023-05-07T00:43:53;4.40;;;2.17;;
63438;SDS011;49567;48.958;8.294;2023-05-07T00:46:21;3.08;;;1.90;;
63438;SDS011;49567;48.958;8.294;2023-05-07T00:48:47;2.45;;;2.17;;
63438;SDS011;49567;48.958;8.294;2023-05-07T00:51:15;2.35;;;2.15;;
63438;SDS011;49567;48.958;8.294;2023-05-07T00:53:41;2.25;;;2.05;;
63438;SDS011;49567;48.958;8.294;2023-05-07T00:56:06;4.73;;;2.10;;
63438;SDS011;49567;48.958;8.294;2023-05-07T00:58:32;1.90;;;1.90;;
63438;SDS011;49567;48.958;8.294;2023-05-07T01:00:58;3.42;;;2.45;;
63438;SDS011;49567;48.958;8.294;2023-05-07T01:03:24;3.28;;;2.17;;
63438;SDS011;49567;48.958;8.294;2023-05-07T01:05:50;2.13;;;1.90;;
63438;SDS011;49567;48.958;8.294;2023-05-07T01:08:17;2.53;;;2.13;;
63438;SDS011;49567;48.958;8.294;2023-05-07T01:10:43;2.35;;;2.15;;
63438;SDS011;49567;48.958;8.294;2023-05-07T01:13:09;3.10;;;2.22;;
63438;SDS011;49567;48.958;8.294;2023-05-07T01:15:36;6.20;;;2.25;;
63438;SDS011;49567;48.958;8.294;2023-05-07T01:18:01;2.40;;;2.20;;
63438;SDS011;49567;48.958;8.294;2023-05-07T01:20:27;3.13;;;2.33;;
63438;SDS011;49567;48.958;8.294;2023-05-07T01:22:53;2.35;;;2.15;;
63438;SDS011;49567;48.958;8.294;2023-05-07T01:25:19;2.10;;;1.90;;
63438;SDS011;49567;48.958;8.294;2023-05-07T01:27:45;2.80;;;2.10;;
63438;SDS011;49567;48.958;8.294;2023-05-07T01:30:10;2.73;;;2.30;;
63438;SDS011;49567;48.958;8.294;2023-05-07T01:32:38;2.28;;;2.13;;
63438;SDS011;49567;48.958;8.294;2023-05-07T01:35:09;2.15;;;2.05;;
63438;SDS011;49567;48.958;8.294;2023-05-07T01:37:37;3.85;;;2.17;;
63438;SDS011;49567;48.958;8.294;2023-05-07T01:40:04;2.43;;;2.23;;
63438;SDS011;49567;48.958;8.294;2023-05-07T01:42:32;2.20;;;2.10;;
63438;SDS011;49567;48.958;8.294;2023-05-07T01:44:57;2.38;;;2.10;;
63438;SDS011;49567;48.958;8.294;2023-05-07T01:47:23;2.73;;;2.17;;
63438;SDS011;49567;48.958;8.294;2023-05-07T01:49:49;2.13;;;2.03;;
63438;SDS011;49567;48.958;8.294;2023-05-07T01:52:15;2.03;;;1.93;;
63438;SDS011;49567;48.958;8.294;2023-05-07T01:54:40;2.03;;;1.90;;
63438;SDS011;49567;48.958;8.294;2023-05-07T01:57:05;2.33;;;2.10;;
63438;SDS011;49567;48.958;8.294;2023-05-07T01:59:31;2.20;;;1.97;;
63438;SDS011;49567;48.958;8.294;2023-05-07T02:01:56;2.30;;;2.10;;
63438;SDS011;49567;48.958;8.294;2023-05-07T02:04:21;2.97;;;2.30;;
63438;SDS011;49567;48.958;8.294;2023-05-07T02:06:46;3.80;;;2.20;;
63438;SDS011;49567;48.958;8.294;2023-05-07T02:09:12;2.47;;;2.27;;
63438;SDS011;49567;48.958;8.294;2023-05-07T02:11:40;2.47;;;1.90;;
63438;SDS011;49567;48.958;8.294;2023-05-07T02:14:05;2.80;;;2.20;;
63438;SDS011;49567;48.958;8.294;2023-05-07T02:16:30;3.50;;;2.50;;
63438;SDS011;49567;48.958;8.294;2023-05-07T02:18:55;2.27;;;2.10;;
63438;SDS011;49567;48.958;8.294;2023-05-07T02:21:21;2.58;;;2.03;;
63438;SDS011;49567;48.958;8.294;2023-05-07T02:23:46;6.40;;;2.53;;
63438;SDS011;49567;48.958;8.294;2023-05-07T02:26:12;3.47;;;2.20;;
63438;SDS011;49567;48.958;8.294;2023-05-07T02:28:37;2.75;;;2.42;;
63438;SDS011;49567;48.958;8.294;2023-05-07T02:31:03;3.20;;;2.60;;
63438;SDS011;49567;48.958;8.294;2023-05-07T02:33:28;2.75;;;2.20;;
63438;SDS011;49567;48.958;8.294;2023-05-07T02:35:54;4.37;;;2.77;;
63438;SDS011;49567;48.958;8.294;2023-05-07T02:38:19;2.30;;;2.10;;
63438;SDS011;49567;48.958;8.294;2023-05-07T02:40:44;2.50;;;2.40;;
63438;SDS011;49567;48.958;8.294;2023-05-07T02:43:10;2.30;;;2.20;;
63438;SDS011;49567;48.958;8.294;2023-05-07T02:45:35;2.40;;;2.30;;
63438;SDS011;49567;48.958;8.294;2023-05-07T02:48:02;3.00;;;2.40;;
63438;SDS011;49567;48.958;8.294;2023-05-07T02:50:27;2.67;;;2.27;;
63438;SDS011;49567;48.958;8.294;2023-05-07T02:52:53;2.97;;;2.40;;
63438;SDS011;49567;48.958;8.294;2023-05-07T02:55:18;3.78;;;1.90;;
63438;SDS011;49567;48.958;8.294;2023-05-07T02:57:44;2.23;;;2.10;;
63438;SDS011;49567;48.958;8.294;2023-05-07T03:00:10;4.00;;;2.93;;
63438;SDS011;49567;48.958;8.294;2023-05-07T03:02:39;2.60;;;2.00;;
63438;SDS011;49567;48.958;8.294;2023-05-07T03:05:04;2.47;;;2.30;;
63438;SDS011;49567;48.958;8.294;2023-05-07T03:07:30;4.30;;;2.23;;
63438;SDS011;49567;48.958;8.294;2023-05-07T03:09:55;4.87;;;2.30;;
63438;SDS011;49567;48.958;8.294;2023-05-07T03:12:21;2.87;;;2.40;;
63438;SDS011;49567;48.958;8.294;2023-05-07T03:14:46;2.50;;;2.20;;
63438;SDS011;49567;48.958;8.294;2023-05-07T03:17:11;2.63;;;2.33;;
63438;SDS011;49567;48.958;8.294;2023-05-07T03:19:36;2.43;;;2.27;;
63438;SDS011;49567;48.958;8.294;2023-05-07T03:22:02;3.20;;;2.90;;
63438;SDS011;49567;48.958;8.294;2023-05-07T03:24:27;2.13;;;1.93;;
63438;SDS011;49567;48.958;8.294;2023-05-07T03:26:52;3.20;;;2.50;;
63438;SDS011;49567;48.958;8.294;2023-05-07T03:29:17;2.80;;;2.23;;
63438;SDS011;49567;48.958;8.294;2023-05-07T03:31:43;2.77;;;2.57;;
63438;SDS011;49567;48.958;8.294;2023-05-07T03:34:08;3.63;;;2.63;;
63438;SDS011;49567;48.958;8.294;2023-05-07T03:36:33;2.65;;;2.45;;
63438;SDS011;49567;48.958;8.294;2023-05-07T03:38:59;2.63;;;2.23;;
63438;SDS011;49567;48.958;8.294;2023-05-07T03:41:24;2.33;;;2.23;;
63438;SDS011;49567;48.958;8.294;2023-05-07T03:43:50;2.60;;;2.40;;
63438;SDS011;49567;48.958;8.294;2023-05-07T03:46:15;2.50;;;2.17;;
63438;SDS011;49567;48.958;8.294;2023-05-07T03:48:41;2.50;;;2.30;;
63438;SDS011;49567;48.958;8.294;2023-05-07T03:51:06;3.87;;;2.50;;
63438;SDS011;49567;48.958;8.294;2023-05-07T03:53:31;4.80;;;2.00;;
63438;SDS011;49567;48.958;8.294;2023-05-07T03:55:57;3.65;;;2.45;;
63438;SDS011;49567;48.958;8.294;2023-05-07T03:58:22;3.33;;;2.60;;
63438;SDS011;49567;48.958;8.294;2023-05-07T04:00:47;2.67;;;2.33;;
63438;SDS011;49567;48.958;8.294;2023-05-07T04:03:13;2.40;;;2.30;;
63438;SDS011;49567;48.958;8.294;2023-05-07T04:05:38;2.93;;;2.73;;
63438;SDS011;49567;48.958;8.294;2023-05-07T04:08:04;2.63;;;2.07;;
63438;SDS011;49567;48.958;8.294;2023-05-07T04:10:30;2.47;;;2.38;;
63438;SDS011;49567;48.958;8.294;2023-05-07T04:12:55;2.50;;;2.40;;
63438;SDS011;49567;48.958;8.294;2023-05-07T04:15:22;4.60;;;2.40;;
63438;SDS011;49567;48.958;8.294;2023-05-07T04:17:47;3.03;;;2.60;;
63438;SDS011;49567;48.958;8.294;2023-05-07T04:20:14;4.90;;;2.57;;
63438;SDS011;49567;48.958;8.294;2023-05-07T04:22:40;2.70;;;2.33;;
63438;SDS011;49567;48.958;8.294;2023-05-07T04:25:06;2.53;;;2.33;;
63438;SDS011;49567;48.958;8.294;2023-05-07T04:27:34;3.27;;;2.67;;
63438;SDS011;49567;48.958;8.294;2023-05-07T04:29:59;2.37;;;2.20;;
63438;SDS011;49567;48.958;8.294;2023-05-07T04:32:25;2.95;;;2.72;;
63438;SDS011;49567;48.958;8.294;2023-05-07T04:34:51;2.80;;;2.60;;
63438;SDS011;49567;48.958;8.294;2023-05-07T04:37:16;2.97;;;2.37;;
63438;SDS011;49567;48.958;8.294;2023-05-07T04:39:41;2.70;;;2.50;;
63438;SDS011;49567;48.958;8.294;2023-05-07T04:42:07;2.50;;;2.30;;
63438;SDS011;49567;48.958;8.294;2023-05-07T04:44:33;2.45;;;2.10;;
63438;SDS011;49567;48.958;8.294;2023-05-07T04:46:59;3.08;;;2.78;;
63438;SDS011;49567;48.958;8.294;2023-05-07T04:49:24;2.43;;;2.33;;
63438;SDS011;49567;48.958;8.294;2023-05-07T04:51:50;3.23;;;2.60;;
63438;SDS011;49567;48.958;8.294;2023-05-07T04:54:15;4.70;;;2.53;;
63438;SDS011;49567;48.958;8.294;2023-05-07T04:56:40;5.87;;;2.50;;
63438;SDS011;49567;48.958;8.294;2023-05-07T04:59:05;2.50;;;2.30;;
63438;SDS011;49567;48.958;8.294;2023-05-07T05:01:31;3.07;;;2.30;;
63438;SDS011;49567;48.958;8.294;2023-05-07T05:03:56;2.20;;;2.10;;
63438;SDS011;49567;48.958;8.294;2023-05-07T05:06:21;2.30;;;2.20;;
63438;SDS011;49567;48.958;8.294;2023-05-07T05:08:47;2.30;;;2.20;;
63438;SDS011;49567;48.958;8.294;2023-05-07T05:11:12;2.60;;;2.45;;
63438;SDS011;49567;48.958;8.294;2023-05-07T05:13:37;2.33;;;2.20;;
63438;SDS011;49567;48.958;8.294;2023-05-07T05:16:02;2.80;;;2.60;;
63438;SDS011;49567;48.958;8.294;2023-05-07T05:18:28;2.58;;;2.38;;
63438;SDS011;49567;48.958;8.294;2023-05-07T05:20:53;2.60;;;2.10;;
63438;SDS011;49567;48.958;8.294;2023-05-07T05:23:19;2.73;;;2.30;;
63438;SDS011;49567;48.958;8.294;2023-05-07T05:25:45;3.00;;;2.70;;
63438;SDS011;49567;48.958;8.294;2023-05-07T05:28:10;2.80;;;2.60;;
63438;SDS011;49567;48.958;8.294;2023-05-07T05:30:35;2.37;;;2.27;;
63438;SDS011;49567;48.958;8.294;2023-05-07T05:33:01;2.53;;;2.33;;
63438;SDS011;49567;48.958;8.294;2023-05-07T05:35:26;2.20;;;2.10;;
63438;SDS011;49567;48.958;8.294;2023-05-07T05:37:51;2.15;;;2.03;;
63438;SDS011;49567;48.958;8.294;2023-05-07T05:40:17;2.50;;;2.37;;
63438;SDS011;49567;48.958;8.294;2023-05-07T05:42:42;2.67;;;2.47;;
63438;SDS011;49567;48.958;8.294;2023-05-07T05:45:07;2.10;;;2.00;;
63438;SDS011;49567;48.958;8.294;2023-05-07T05:47:33;2.90;;;2.30;;
63438;SDS011;49567;48.958;8.294;2023-05-07T05:49:58;3.00;;;2.70;;
63438;SDS011;49567;48.958;8.294;2023-05-07T05:52:24;3.23;;;2.17;;
63438;SDS011;49567;48.958;8.294;2023-05-07T05:54:49;3.20;;;2.35;;
63438;SDS011;49567;48.958;8.294;2023-05-07T05:57:15;2.70;;;2.50;;
63438;SDS011;49567;48.958;8.294;2023-05-07T05:59:40;3.70;;;2.03;;
63438;SDS011;49567;48.958;8.294;2023-05-07T06:02:06;2.45;;;2.35;;
63438;SDS011;49567;48.958;8.294;2023-05-07T06:04:31;2.60;;;2.40;;
63438;SDS011;49567;48.958;8.294;2023-05-07T06:06:57;3.40;;;2.27;;
63438;SDS011;49567;48.958;8.294;2023-05-07T06:09:22;2.10;;;2.00;;
63438;SDS011;49567;48.958;8.294;2023-05-07T06:11:47;2.43;;;2.33;;
63438;SDS011;49567;48.958;8.294;2023-05-07T06:14:12;3.90;;;2.37;;
63438;SDS011;49567;48.958;8.294;2023-05-07T06:16:38;2.60;;;2.33;;
63438;SDS011;49567;48.958;8.294;2023-05-07T06:19:03;3.13;;;2.33;;
63438;SDS011;49567;48.958;8.294;2023-05-07T06:21:28;3.60;;;2.30;;
63438;SDS011;49567;48.958;8.294;2023-05-07T06:23:54;3.50;;;2.05;;
63438;SDS011;49567;48.958;8.294;2023-05-07T06:26:19;3.47;;;2.17;;
63438;SDS011;49567;48.958;8.294;2023-05-07T06:28:45;2.63;;;2.43;;
63438;SDS011;49567;48.958;8.294;2023-05-07T06:31:17;5.60;;;2.77;;
63438;SDS011;49567;48.958;8.294;2023-05-07T06:33:47;2.88;;;2.30;;
63438;SDS011;49567;48.958;8.294;2023-05-07T06:36:14;2.58;;;2.25;;
63438;SDS011;49567;48.958;8.294;2023-05-07T06:38:39;5.63;;;2.87;;
63438;SDS011;49567;48.958;8.294;2023-05-07T06:41:07;3.33;;;2.50;;
63438;SDS011;49567;48.958;8.294;2023-05-07T06:43:33;2.53;;;2.40;;
63438;SDS011;49567;48.958;8.294;2023-05-07T06:45:58;2.70;;;2.37;;
63438;SDS011;49567;48.958;8.294;2023-05-07T06:48:24;2.73;;;2.40;;
63438;SDS011;49567;48.958;8.294;2023-05-07T06:50:49;2.00;;;1.90;;
63438;SDS011;49567;48.958;8.294;2023-05-07T06:53:15;3.03;;;2.73;;
63438;SDS011;49567;48.958;8.294;2023-05-07T06:55:40;2.40;;;2.20;;
63438;SDS011;49567;48.958;8.294;2023-05-07T06:58:06;4.35;;;2.38;;
63438;SDS011;49567;48.958;8.294;2023-05-07T07:00:31;3.90;;;2.50;;
63438;SDS011;49567;48.958;8.294;2023-05-07T07:02:57;2.57;;;2.47;;
63438;SDS011;49567;48.958;8.294;2023-05-07T07:05:22;2.50;;;2.30;;
63438;SDS011;49567;48.958;8.294;2023-05-07T07:07:47;2.67;;;2.47;;
63438;SDS011;49567;48.958;8.294;2023-05-07T07:10:17;3.53;;;2.85;;
63438;SDS011;49567;48.958;8.294;2023-05-07T07:12:44;3.40;;;2.90;;
63438;SDS011;49567;48.958;8.294;2023-05-07T07:15:09;3.23;;;2.87;;
63438;SDS011;49567;48.958;8.294;2023-05-07T07:17:35;3.33;;;2.70;;
63438;SDS011;49567;48.958;8.294;2023-05-07T07:20:00;2.60;;;2.40;;
63438;SDS011;49567;48.958;8.294;2023-05-07T07:22:25;2.53;;;2.33;;
63438;SDS011;49567;48.958;8.294;2023-05-07T07:24:51;2.20;;;2.10;;
63438;SDS011;49567;48.958;8.294;2023-05-07T07:27:16;2.73;;;2.53;;
63438;SDS011;49567;48.958;8.294;2023-05-07T07:29:41;2.83;;;2.30;;
63438;SDS011;49567;48.958;8.294;2023-05-07T07:32:06;4.87;;;1.90;;
63438;SDS011;49567;48.958;8.294;2023-05-07T07:34:32;2.83;;;2.55;;
63438;SDS011;49567;48.958;8.294;2023-05-07T07:36:57;2.77;;;2.20;;
63438;SDS011;49567;48.958;8.294;2023-05-07T07:39:22;2.23;;;2.13;;
63438;SDS011;49567;48.958;8.294;2023-05-07T07:41:47;2.37;;;2.23;;
63438;SDS011;49567;48.958;8.294;2023-05-07T07:44:13;2.80;;;2.60;;
63438;SDS011;49567;48.958;8.294;2023-05-07T07:46:38;2.95;;;2.65;;
63438;SDS011;49567;48.958;8.294;2023-05-07T07:49:03;2.90;;;2.70;;
63438;SDS011;49567;48.958;8.294;2023-05-07T07:51:28;3.10;;;2.80;;
63438;SDS011;49567;48.958;8.294;2023-05-07T07:53:54;3.10;;;2.63;;
63438;SDS011;49567;48.958;8.294;2023-05-07T07:56:19;2.53;;;2.33;;
63438;SDS011;49567;48.958;8.294;2023-05-07T07:58:45;2.90;;;2.70;;
63438;SDS011;49567;48.958;8.294;2023-05-07T08:01:10;2.37;;;2.27;;
63438;SDS011;49567;48.958;8.294;2023-05-07T08:03:37;4.50;;;2.50;;
63438;SDS011;49567;48.958;8.294;2023-05-07T08:06:03;2.60;;;2.50;;
63438;SDS011;49567;48.958;8.294;2023-05-07T08:08:28;2.30;;;2.10;;
63438;SDS011;49567;48.958;8.294;2023-05-07T08:10:55;3.38;;;2.65;;
63438;SDS011;49567;48.958;8.294;2023-05-07T08:13:20;2.70;;;2.50;;
63438;SDS011;49567;48.958;8.294;2023-05-07T08:15:46;2.22;;;2.13;;
63438;SDS011;49567;48.958;8.294;2023-05-07T08:18:12;2.83;;;2.40;;
63438;SDS011;49567;48.958;8.294;2023-05-07T08:20:37;3.17;;;2.50;;
63438;SDS011;49567;48.958;8.294;2023-05-07T08:23:04;1.95;;;1.85;;
63438;SDS011;49567;48.958;8.294;2023-05-07T08:25:32;3.90;;;2.08;;
63438;SDS011;49567;48.958;8.294;2023-05-07T08:27:58;3.00;;;2.00;;
63438;SDS011;49567;48.958;8.294;2023-05-07T08:30:23;4.63;;;2.27;;
63438;SDS011;49567;48.958;8.294;2023-05-07T08:32:48;2.20;;;2.07;;
63438;SDS011;49567;48.958;8.294;2023-05-07T08:35:14;2.40;;;2.20;;
63438;SDS011;49567;48.958;8.294;2023-05-07T08:37:39;3.23;;;2.00;;
63438;SDS011;49567;48.958;8.294;2023-05-07T08:40:04;4.07;;;2.10;;
63438;SDS011;49567;48.958;8.294;2023-05-07T08:42:31;4.25;;;2.03;;
63438;SDS011;49567;48.958;8.294;2023-05-07T08:44:57;2.40;;;2.30;;
63438;SDS011;49567;48.958;8.294;2023-05-07T08:47:26;2.75;;;2.25;;
63438;SDS011;49567;48.958;8.294;2023-05-07T08:49:57;3.05;;;2.33;;
63438;SDS011;49567;48.958;8.294;2023-05-07T08:52:23;3.28;;;2.22;;
63438;SDS011;49567;48.958;8.294;2023-05-07T08:54:48;2.90;;;2.53;;
63438;SDS011;49567;48.958;8.294;2023-05-07T08:57:13;2.90;;;2.10;;
63438;SDS011;49567;48.958;8.294;2023-05-07T08:59:39;2.10;;;1.97;;
63438;SDS011;49567;48.958;8.294;2023-05-07T09:02:05;9.20;;;2.73;;
63438;SDS011;49567;48.958;8.294;2023-05-07T09:04:34;2.78;;;2.10;;
63438;SDS011;49567;48.958;8.294;2023-05-07T09:06:59;2.63;;;2.43;;
63438;SDS011;49567;48.958;8.294;2023-05-07T09:09:30;4.65;;;2.40;;
63438;SDS011;49567;48.958;8.294;2023-05-07T09:11:57;2.75;;;2.50;;
63438;SDS011;49567;48.958;8.294;2023-05-07T09:14:25;7.00;;;2.22;;
63438;SDS011;49567;48.958;8.294;2023-05-07T09:16:53;4.57;;;2.83;;
63438;SDS011;49567;48.958;8.294;2023-05-07T09:19:25;2.92;;;2.80;;
63438;SDS011;49567;48.958;8.294;2023-05-07T09:22:02;3.10;;;2.90;;
63438;SDS011;49567;48.958;8.294;2023-05-07T09:24:29;2.75;;;2.58;;
63438;SDS011;49567;48.958;8.294;2023-05-07T09:26:59;4.05;;;3.65;;
63438;SDS011;49567;48.958;8.294;2023-05-07T09:29:26;1400.80;;;999.90;;
63438;SDS011;49567;48.958;8.294;2023-05-07T09:31:53;1999.90;;;999.90;;
63438;SDS011;49567;48.958;8.294;2023-05-07T09:34:19;1999.90;;;999.90;;
63438;SDS011;49567;48.958;8.294;2023-05-07T09:36:44;1999.90;;;999.90;;
63438;SDS011;49567;48.958;8.294;2023-05-07T09:39:10;1999.90;;;999.90;;
63438;SDS011;49567;48.958;8.294;2023-05-07T09:41:42;1999.90;;;999.90;;
63438;SDS011;49567;48.958;8.294;2023-05-07T09:44:09;1999.90;;;999.90;;
63438;SDS011;49567;48.958;8.294;2023-05-07T09:46:34;1999.90;;;999.90;;
63438;SDS011;49567;48.958;8.294;2023-05-07T09:49:01;1999.90;;;999.90;;
63438;SDS011;49567;48.958;8.294;2023-05-07T09:54:03;1533.90;;;209.63;;
63438;SDS011;49567;48.958;8.294;2023-05-07T09:56:29;408.50;;;373.95;;
63438;SDS011;49567;48.958;8.294;2023-05-07T09:58:57;1.80;;;1.70;;
63438;SDS011;49567;48.958;8.294;2023-05-07T10:01:28;2.58;;;1.35;;
63438;SDS011;49567;48.958;8.294;2023-05-07T10:03:55;1.40;;;1.40;;
63438;SDS011;49567;48.958;8.294;2023-05-07T10:06:23;3.38;;;1.60;;
63438;SDS011;49567;48.958;8.294;2023-05-07T10:08:50;2.65;;;1.27;;
63438;SDS011;49567;48.958;8.294;2023-05-07T10:11:16;2.60;;;1.38;;
63438;SDS011;49567;48.958;8.294;2023-05-07T10:13:42;1.97;;;1.17;;
63438;SDS011;49567;48.958;8.294;2023-05-07T10:16:08;2.92;;;1.95;;
63438;SDS011;49567;48.958;8.294;2023-05-07T10:18:34;1.30;;;1.30;;
63438;SDS011;49567;48.958;8.294;2023-05-07T10:21:02;1.37;;;1.37;;
63438;SDS011;49567;48.958;8.294;2023-05-07T10:23:31;1.48;;;1.30;;
63438;SDS011;49567;48.958;8.294;2023-05-07T10:25:58;1.83;;;1.00;;
63438;SDS011;49567;48.958;8.294;2023-05-07T10:28:26;3.50;;;1.50;;
63438;SDS011;49567;48.958;8.294;2023-05-07T10:33:40;2.53;;;1.48;;
63438;SDS011;49567;48.958;8.294;2023-05-07T10:36:08;4.72;;;1.50;;
63438;SDS011;49567;48.958;8.294;2023-05-07T10:38:34;1.30;;;1.30;;
63438;SDS011;49567;48.958;8.294;2023-05-07T10:40:59;1.53;;;1.43;;
63438;SDS011;49567;48.958;8.294;2023-05-07T10:43:25;1.60;;;1.50;;
63438;SDS011;49567;48.958;8.294;2023-05-07T10:46:09;3.17;;;1.73;;
63438;SDS011;49567;48.958;8.294;2023-05-07T10:51:25;1.67;;;1.40;;
63438;SDS011;49567;48.958;8.294;2023-05-07T10:56:34;2.10;;;1.52;;
63438;SDS011;49567;48.958;8.294;2023-05-07T10:59:42;2.63;;;1.47;;
63438;SDS011;49567;48.958;8.294;2023-05-07T11:01:57;2.00;;;1.80;;
63438;SDS011;49567;48.958;8.294;2023-05-07T11:04:23;1.50;;;1.47;;
63438;SDS011;49567;48.958;8.294;2023-05-07T11:15:04;1.38;;;1.10;;
63438;SDS011;49567;48.958;8.294;2023-05-07T11:17:33;2.25;;;1.40;;
63438;SDS011;49567;48.958;8.294;2023-05-07T11:20:00;3.17;;;1.70;;
63438;SDS011;49567;48.958;8.294;2023-05-07T11:25:05;3.37;;;1.37;;
63438;SDS011;49567;48.958;8.294;2023-05-07T11:27:31;1.40;;;1.30;;
63438;SDS011;49567;48.958;8.294;2023-05-07T11:29:57;4.35;;;1.40;;
63438;SDS011;49567;48.958;8.294;2023-05-07T11:32:23;1.25;;;1.10;;
63438;SDS011;49567;48.958;8.294;2023-05-07T11:34:53;1.67;;;1.58;;
63438;SDS011;49567;48.958;8.294;2023-05-07T11:37:25;1.88;;;1.20;;
63438;SDS011;49567;48.958;8.294;2023-05-07T11:40:04;2.43;;;1.57;;
63438;SDS011;49567;48.958;8.294;2023-05-07T11:42:35;1.75;;;1.65;;
63438;SDS011;49567;48.958;8.294;2023-05-07T11:45:07;1.40;;;1.30;;
63438;SDS011;49567;48.958;8.294;2023-05-07T11:47:33;2.10;;;1.45;;
63438;SDS011;49567;48.958;8.294;2023-05-07T11:50:02;1.40;;;1.30;;
63438;SDS011;49567;48.958;8.294;2023-05-07T11:52:29;2.00;;;1.10;;
63438;SDS011;49567;48.958;8.294;2023-05-07T11:54:55;1.50;;;1.40;;
63438;SDS011;49567;48.958;8.294;2023-05-07T11:57:22;1.33;;;1.30;;
63438;SDS011;49567;48.958;8.294;2023-05-07T11:59:53;1.70;;;1.60;;
63438;SDS011;49567;48.958;8.294;2023-05-07T12:02:27;2.47;;;1.60;;
63438;SDS011;49567;48.958;8.294;2023-05-07T12:04:53;3.00;;;2.05;;
63438;SDS011;49567;48.958;8.294;2023-05-07T12:07:19;4.70;;;1.53;;
63438;SDS011;49567;48.958;8.294;2023-05-07T12:09:46;1.90;;;1.50;;
63438;SDS011;49567;48.958;8.294;2023-05-07T12:12:12;1.33;;;1.20;;
63438;SDS011;49567;48.958;8.294;2023-05-07T12:14:43;2.00;;;1.30;;
63438;SDS011;49567;48.958;8.294;2023-05-07T12:17:11;1.60;;;1.50;;
63438;SDS011;49567;48.958;8.294;2023-05-07T12:19:38;2.60;;;1.17;;
63438;SDS011;49567;48.958;8.294;2023-05-07T12:22:05;1.25;;;1.25;;
63438;SDS011;49567;48.958;8.294;2023-05-07T12:24:45;2.13;;;1.67;;
63438;SDS011;49567;48.958;8.294;2023-05-07T12:27:11;1.83;;;1.50;;
63438;SDS011;49567;48.958;8.294;2023-05-07T12:29:36;2.10;;;1.60;;
63438;SDS011;49567;48.958;8.294;2023-05-07T12:32:05;1.90;;;1.80;;
63438;SDS011;49567;48.958;8.294;2023-05-07T12:34:31;2.30;;;2.10;;
63438;SDS011;49567;48.958;8.294;2023-05-07T12:36:56;1.90;;;1.70;;
63438;SDS011;49567;48.958;8.294;2023-05-07T12:39:22;4.03;;;2.13;;
63438;SDS011;49567;48.958;8.294;2023-05-07T12:44:29;2.47;;;2.28;;
63438;SDS011;49567;48.958;8.294;2023-05-07T12:46:58;4.72;;;4.20;;
63438;SDS011;49567;48.958;8.294;2023-05-07T12:49:26;7.80;;;7.20;;
63438;SDS011;49567;48.958;8.294;2023-05-07T12:51:51;434.37;;;409.03;;
63438;SDS011;49567;48.958;8.294;2023-05-07T12:54:32;585.37;;;546.67;;
63438;SDS011;49567;48.958;8.294;2023-05-07T12:57:03;861.38;;;793.90;;
63438;SDS011;49567;48.958;8.294;2023-05-07T12:59:31;822.72;;;761.10;;
63438;SDS011;49567;48.958;8.294;2023-05-07T13:02:04;163.77;;;155.68;;
63438;SDS011;49567;48.958;8.294;2023-05-07T13:04:29;739.85;;;684.50;;
63438;SDS011;49567;48.958;8.294;2023-05-07T13:06:55;21.17;;;20.27;;
63438;SDS011;49567;48.958;8.294;2023-05-07T13:09:20;4.10;;;4.00;;
63438;SDS011;49567;48.958;8.294;2023-05-07T13:11:46;2.97;;;2.67;;
63438;SDS011;49567;48.958;8.294;2023-05-07T13:14:11;3.83;;;3.37;;
63438;SDS011;49567;48.958;8.294;2023-05-07T13:16:37;3.00;;;2.60;;
63438;SDS011;49567;48.958;8.294;2023-05-07T13:19:02;2.47;;;2.27;;
63438;SDS011;49567;48.958;8.294;2023-05-07T13:21:27;2.60;;;2.50;;
63438;SDS011;49567;48.958;8.294;2023-05-07T13:23:52;3.80;;;2.30;;
63438;SDS011;49567;48.958;8.294;2023-05-07T13:26:18;1.70;;;1.60;;
63438;SDS011;49567;48.958;8.294;2023-05-07T13:28:43;4.07;;;1.73;;
63438;SDS011;49567;48.958;8.294;2023-05-07T13:31:09;2.63;;;1.67;;
63438;SDS011;49567;48.958;8.294;2023-05-07T13:33:34;2.67;;;1.30;;
63438;SDS011;49567;48.958;8.294;2023-05-07T13:36:00;1.63;;;1.17;;
63438;SDS011;49567;48.958;8.294;2023-05-07T13:38:25;1.17;;;1.10;;
63438;SDS011;49567;48.958;8.294;2023-05-07T13:40:51;2.93;;;1.40;;
63438;SDS011;49567;48.958;8.294;2023-05-07T13:43:16;1.73;;;1.37;;
63438;SDS011;49567;48.958;8.294;2023-05-07T13:45:42;1.50;;;1.40;;
63438;SDS011;49567;48.958;8.294;2023-05-07T13:48:07;1.40;;;1.33;;
63438;SDS011;49567;48.958;8.294;2023-05-07T13:50:33;2.92;;;1.70;;
63438;SDS011;49567;48.958;8.294;2023-05-07T13:52:58;3.00;;;1.80;;
63438;SDS011;49567;48.958;8.294;2023-05-07T13:55:24;3.33;;;1.70;;
63438;SDS011;49567;48.958;8.294;2023-05-07T13:57:56;4.10;;;2.10;;
63438;SDS011;49567;48.958;8.294;2023-05-07T14:00:23;6.93;;;2.38;;
63438;SDS011;49567;48.958;8.294;2023-05-07T14:02:48;50.13;;;47.60;;
63438;SDS011;49567;48.958;8.294;2023-05-07T14:05:14;10.37;;;9.73;;
63438;SDS011;49567;48.958;8.294;2023-05-07T14:07:39;1999.90;;;999.90;;
63438;SDS011;49567;48.958;8.294;2023-05-07T14:10:04;1999.90;;;999.90;;
63438;SDS011;49567;48.958;8.294;2023-05-07T14:12:31;1999.90;;;999.90;;
63438;SDS011;49567;48.958;8.294;2023-05-07T14:14:57;1999.90;;;999.90;;
63438;SDS011;49567;48.958;8.294;2023-05-07T14:17:22;1999.90;;;999.90;;
63438;SDS011;49567;48.958;8.294;2023-05-07T14:19:50;1999.90;;;999.90;;
63438;SDS011;49567;48.958;8.294;2023-05-07T14:22:15;1999.90;;;999.90;;
63438;SDS011;49567;48.958;8.294;2023-05-07T14:24:40;1999.90;;;907.27;;
63438;SDS011;49567;48.958;8.294;2023-05-07T14:27:06;1999.90;;;999.90;;
63438;SDS011;49567;48.958;8.294;2023-05-07T14:29:31;1999.90;;;999.90;;
63438;SDS011;49567;48.958;8.294;2023-05-07T14:31:56;1.77;;;1.67;;
63438;SDS011;49567;48.958;8.294;2023-05-07T14:34:22;38.90;;;36.80;;
63438;SDS011;49567;48.958;8.294;2023-05-07T14:36:47;277.77;;;262.43;;
63438;SDS011;49567;48.958;8.294;2023-05-07T14:39:12;1999.90;;;999.90;;
63438;SDS011;49567;48.958;8.294;2023-05-07T14:41:38;1999.90;;;999.90;;
63438;SDS011;49567;48.958;8.294;2023-05-07T14:44:03;1999.90;;;648.30;;
63438;SDS011;49567;48.958;8.294;2023-05-07T14:46:29;1999.90;;;291.60;;
63438;SDS011;49567;48.958;8.294;2023-05-07T14:48:54;1999.90;;;999.90;;
63438;SDS011;49567;48.958;8.294;2023-05-07T14:51:21;1999.90;;;999.90;;
63438;SDS011;49567;48.958;8.294;2023-05-07T14:53:47;1999.90;;;999.90;;
63438;SDS011;49567;48.958;8.294;2023-05-07T14:56:12;1999.90;;;999.90;;
63438;SDS011;49567;48.958;8.294;2023-05-07T14:58:37;1999.90;;;999.90;;